sensor_id;sensor_type;location;lat;lon;timestamp;P1;durP1;ratioP1;P2;durP2;ratioP2
21798;SDS011;24973;47.178;15.316;2024-01-27T00:02:43;351.77;;;100.67;;
21798;SDS011;24973;47.178;15.316;2024-01-27T00:05:32;340.17;;;93.73;;
21798;SDS011;24973;47.178;15.316;2024-01-27T00:08:21;338.27;;;90.73;;
21798;SDS011;24973;47.178;15.316;2024-01-27T00:11:12;339.60;;;90.77;;
21798;SDS011;24973;47.178;15.316;2024-01-27T00:14:01;335.33;;;88.77;;
21798;SDS011;24973;47.178;15.316;2024-01-27T00:16:50;337.40;;;88.30;;
21798;SDS011;24973;47.178;15.316;2024-01-27T00:19:39;341.80;;;90.97;;
21798;SDS011;24973;47.178;15.316;2024-01-27T00:22:28;345.37;;;96.80;;
21798;SDS011;24973;47.178;15.316;2024-01-27T00:25:17;346.63;;;96.77;;
21798;SDS011;24973;47.178;15.316;2024-01-27T00:28:07;341.03;;;91.07;;
21798;SDS011;24973;47.178;15.316;2024-01-27T00:30:56;344.23;;;98.17;;
21798;SDS011;24973;47.178;15.316;2024-01-27T00:33:45;333.77;;;90.20;;
21798;SDS011;24973;47.178;15.316;2024-01-27T00:36:34;344.70;;;99.67;;
21798;SDS011;24973;47.178;15.316;2024-01-27T00:39:23;367.67;;;129.57;;
21798;SDS011;24973;47.178;15.316;2024-01-27T00:42:12;341.00;;;97.87;;
21798;SDS011;24973;47.178;15.316;2024-01-27T00:45:03;338.70;;;92.97;;
21798;SDS011;24973;47.178;15.316;2024-01-27T00:47:53;342.40;;;96.40;;
21798;SDS011;24973;47.178;15.316;2024-01-27T00:50:42;341.70;;;97.90;;
21798;SDS011;24973;47.178;15.316;2024-01-27T00:53:31;341.40;;;98.43;;
21798;SDS011;24973;47.178;15.316;2024-01-27T00:56:20;340.53;;;93.43;;
21798;SDS011;24973;47.178;15.316;2024-01-27T00:59:09;338.60;;;89.67;;
21798;SDS011;24973;47.178;15.316;2024-01-27T01:01:59;337.47;;;90.57;;
21798;SDS011;24973;47.178;15.316;2024-01-27T01:04:48;339.03;;;89.77;;
21798;SDS011;24973;47.178;15.316;2024-01-27T01:07:37;343.47;;;94.83;;
21798;SDS011;24973;47.178;15.316;2024-01-27T01:10:26;334.40;;;89.80;;
21798;SDS011;24973;47.178;15.316;2024-01-27T01:13:16;342.33;;;96.60;;
21798;SDS011;24973;47.178;15.316;2024-01-27T01:16:05;332.30;;;90.53;;
21798;SDS011;24973;47.178;15.316;2024-01-27T01:18:57;337.90;;;92.17;;
21798;SDS011;24973;47.178;15.316;2024-01-27T01:21:46;343.33;;;95.90;;
21798;SDS011;24973;47.178;15.316;2024-01-27T01:24:35;341.80;;;92.30;;
21798;SDS011;24973;47.178;15.316;2024-01-27T01:27:24;334.27;;;89.03;;
21798;SDS011;24973;47.178;15.316;2024-01-27T01:30:13;338.33;;;95.27;;
21798;SDS011;24973;47.178;15.316;2024-01-27T01:33:02;335.23;;;88.57;;
21798;SDS011;24973;47.178;15.316;2024-01-27T01:35:52;332.63;;;87.73;;
21798;SDS011;24973;47.178;15.316;2024-01-27T01:38:41;341.73;;;94.93;;
21798;SDS011;24973;47.178;15.316;2024-01-27T01:41:30;331.00;;;85.27;;
21798;SDS011;24973;47.178;15.316;2024-01-27T01:44:19;333.90;;;89.17;;
21798;SDS011;24973;47.178;15.316;2024-01-27T01:47:08;340.20;;;92.27;;
21798;SDS011;24973;47.178;15.316;2024-01-27T01:49:57;333.80;;;89.17;;
21798;SDS011;24973;47.178;15.316;2024-01-27T01:52:48;345.83;;;97.90;;
21798;SDS011;24973;47.178;15.316;2024-01-27T01:55:39;340.63;;;94.27;;
21798;SDS011;24973;47.178;15.316;2024-01-27T01:58:28;333.87;;;87.83;;
21798;SDS011;24973;47.178;15.316;2024-01-27T02:01:21;335.00;;;91.13;;
21798;SDS011;24973;47.178;15.316;2024-01-27T02:04:10;341.37;;;90.30;;
21798;SDS011;24973;47.178;15.316;2024-01-27T02:06:58;335.90;;;92.80;;
21798;SDS011;24973;47.178;15.316;2024-01-27T02:09:49;342.90;;;95.27;;
21798;SDS011;24973;47.178;15.316;2024-01-27T02:12:38;350.40;;;97.67;;
21798;SDS011;24973;47.178;15.316;2024-01-27T02:15:27;333.90;;;89.37;;
21798;SDS011;24973;47.178;15.316;2024-01-27T02:18:16;333.10;;;87.13;;
21798;SDS011;24973;47.178;15.316;2024-01-27T02:21:05;328.80;;;82.83;;
21798;SDS011;24973;47.178;15.316;2024-01-27T02:23:53;331.57;;;87.17;;
21798;SDS011;24973;47.178;15.316;2024-01-27T02:26:44;333.83;;;86.27;;
21798;SDS011;24973;47.178;15.316;2024-01-27T02:29:33;335.73;;;88.87;;
21798;SDS011;24973;47.178;15.316;2024-01-27T02:32:22;335.30;;;88.43;;
21798;SDS011;24973;47.178;15.316;2024-01-27T02:35:11;333.97;;;84.90;;
21798;SDS011;24973;47.178;15.316;2024-01-27T02:38:00;331.67;;;85.90;;
21798;SDS011;24973;47.178;15.316;2024-01-27T02:40:49;330.33;;;83.33;;
21798;SDS011;24973;47.178;15.316;2024-01-27T02:43:40;340.60;;;91.67;;
21798;SDS011;24973;47.178;15.316;2024-01-27T02:46:29;337.70;;;90.90;;
21798;SDS011;24973;47.178;15.316;2024-01-27T02:49:17;329.50;;;83.37;;
21798;SDS011;24973;47.178;15.316;2024-01-27T02:52:06;333.10;;;87.43;;
21798;SDS011;24973;47.178;15.316;2024-01-27T02:54:56;332.23;;;84.90;;
21798;SDS011;24973;47.178;15.316;2024-01-27T02:57:44;338.77;;;88.57;;
21798;SDS011;24973;47.178;15.316;2024-01-27T03:00:35;339.20;;;87.83;;
21798;SDS011;24973;47.178;15.316;2024-01-27T03:03:24;328.37;;;82.77;;
21798;SDS011;24973;47.178;15.316;2024-01-27T03:06:12;330.67;;;83.57;;
21798;SDS011;24973;47.178;15.316;2024-01-27T03:09:01;333.60;;;84.07;;
21798;SDS011;24973;47.178;15.316;2024-01-27T03:11:51;327.47;;;81.57;;
21798;SDS011;24973;47.178;15.316;2024-01-27T03:14:39;340.60;;;88.83;;
21798;SDS011;24973;47.178;15.316;2024-01-27T03:17:30;326.33;;;80.60;;
21798;SDS011;24973;47.178;15.316;2024-01-27T03:20:19;330.33;;;81.57;;
21798;SDS011;24973;47.178;15.316;2024-01-27T03:23:08;327.67;;;79.97;;
21798;SDS011;24973;47.178;15.316;2024-01-27T03:25:56;327.47;;;80.77;;
21798;SDS011;24973;47.178;15.316;2024-01-27T03:28:45;336.43;;;87.07;;
21798;SDS011;24973;47.178;15.316;2024-01-27T03:31:34;334.53;;;83.40;;
21798;SDS011;24973;47.178;15.316;2024-01-27T03:34:24;330.07;;;82.20;;
21798;SDS011;24973;47.178;15.316;2024-01-27T03:37:14;333.07;;;85.27;;
21798;SDS011;24973;47.178;15.316;2024-01-27T03:40:03;329.03;;;82.23;;
21798;SDS011;24973;47.178;15.316;2024-01-27T03:42:53;330.50;;;82.23;;
21798;SDS011;24973;47.178;15.316;2024-01-27T03:45:42;339.37;;;88.53;;
21798;SDS011;24973;47.178;15.316;2024-01-27T03:48:31;332.20;;;84.37;;
21798;SDS011;24973;47.178;15.316;2024-01-27T03:51:23;329.80;;;81.67;;
21798;SDS011;24973;47.178;15.316;2024-01-27T03:54:13;328.53;;;81.97;;
21798;SDS011;24973;47.178;15.316;2024-01-27T03:57:02;338.63;;;89.43;;
21798;SDS011;24973;47.178;15.316;2024-01-27T03:59:51;332.50;;;84.03;;
21798;SDS011;24973;47.178;15.316;2024-01-27T04:02:40;339.07;;;89.50;;
21798;SDS011;24973;47.178;15.316;2024-01-27T04:05:29;342.83;;;91.23;;
21798;SDS011;24973;47.178;15.316;2024-01-27T04:08:20;331.67;;;83.40;;
21798;SDS011;24973;47.178;15.316;2024-01-27T04:11:09;328.67;;;79.93;;
21798;SDS011;24973;47.178;15.316;2024-01-27T04:13:57;329.00;;;82.23;;
21798;SDS011;24973;47.178;15.316;2024-01-27T04:16:48;338.80;;;88.23;;
21798;SDS011;24973;47.178;15.316;2024-01-27T04:19:37;337.13;;;88.97;;
21798;SDS011;24973;47.178;15.316;2024-01-27T04:22:26;334.93;;;85.53;;
21798;SDS011;24973;47.178;15.316;2024-01-27T04:25:16;339.80;;;89.90;;
21798;SDS011;24973;47.178;15.316;2024-01-27T04:28:05;329.97;;;83.17;;
21798;SDS011;24973;47.178;15.316;2024-01-27T04:30:56;330.47;;;84.30;;
21798;SDS011;24973;47.178;15.316;2024-01-27T04:33:44;337.63;;;85.57;;
21798;SDS011;24973;47.178;15.316;2024-01-27T04:36:33;337.87;;;87.00;;
21798;SDS011;24973;47.178;15.316;2024-01-27T04:39:23;325.80;;;78.93;;
21798;SDS011;24973;47.178;15.316;2024-01-27T04:42:13;331.13;;;83.10;;
21798;SDS011;24973;47.178;15.316;2024-01-27T04:45:03;330.50;;;80.10;;
21798;SDS011;24973;47.178;15.316;2024-01-27T04:47:53;326.07;;;80.13;;
21798;SDS011;24973;47.178;15.316;2024-01-27T04:50:42;335.37;;;84.27;;
21798;SDS011;24973;47.178;15.316;2024-01-27T04:53:30;324.63;;;79.23;;
21798;SDS011;24973;47.178;15.316;2024-01-27T04:56:19;328.30;;;80.20;;
21798;SDS011;24973;47.178;15.316;2024-01-27T04:59:09;325.93;;;78.93;;
21798;SDS011;24973;47.178;15.316;2024-01-27T05:01:58;328.67;;;81.87;;
21798;SDS011;24973;47.178;15.316;2024-01-27T05:04:47;325.80;;;81.73;;
21798;SDS011;24973;47.178;15.316;2024-01-27T05:07:36;336.00;;;85.57;;
21798;SDS011;24973;47.178;15.316;2024-01-27T05:10:25;328.00;;;81.40;;
21798;SDS011;24973;47.178;15.316;2024-01-27T05:13:14;330.30;;;83.67;;
21798;SDS011;24973;47.178;15.316;2024-01-27T05:16:05;330.47;;;82.10;;
21798;SDS011;24973;47.178;15.316;2024-01-27T05:18:54;331.60;;;82.23;;
21798;SDS011;24973;47.178;15.316;2024-01-27T05:21:43;338.87;;;84.27;;
21798;SDS011;24973;47.178;15.316;2024-01-27T05:24:32;332.93;;;81.47;;
21798;SDS011;24973;47.178;15.316;2024-01-27T05:27:21;329.03;;;81.63;;
21798;SDS011;24973;47.178;15.316;2024-01-27T05:30:10;331.17;;;85.67;;
21798;SDS011;24973;47.178;15.316;2024-01-27T05:33:01;332.50;;;81.97;;
21798;SDS011;24973;47.178;15.316;2024-01-27T05:35:50;334.63;;;84.73;;
21798;SDS011;24973;47.178;15.316;2024-01-27T05:38:39;344.50;;;90.27;;
21798;SDS011;24973;47.178;15.316;2024-01-27T05:41:28;338.27;;;85.70;;
21798;SDS011;24973;47.178;15.316;2024-01-27T05:44:17;333.87;;;83.73;;
21798;SDS011;24973;47.178;15.316;2024-01-27T05:47:06;334.83;;;83.57;;
21798;SDS011;24973;47.178;15.316;2024-01-27T05:49:59;331.00;;;82.80;;
21798;SDS011;24973;47.178;15.316;2024-01-27T05:52:47;337.87;;;83.70;;
21798;SDS011;24973;47.178;15.316;2024-01-27T05:55:36;340.47;;;88.57;;
21798;SDS011;24973;47.178;15.316;2024-01-27T05:58:25;332.83;;;89.27;;
21798;SDS011;24973;47.178;15.316;2024-01-27T06:01:14;331.07;;;84.87;;
21798;SDS011;24973;47.178;15.316;2024-01-27T06:04:03;333.60;;;84.47;;
21798;SDS011;24973;47.178;15.316;2024-01-27T06:06:53;332.57;;;84.00;;
21798;SDS011;24973;47.178;15.316;2024-01-27T06:09:42;337.57;;;85.27;;
21798;SDS011;24973;47.178;15.316;2024-01-27T06:12:31;343.30;;;88.00;;
21798;SDS011;24973;47.178;15.316;2024-01-27T06:15:21;333.83;;;82.63;;
21798;SDS011;24973;47.178;15.316;2024-01-27T06:18:09;331.90;;;82.63;;
21798;SDS011;24973;47.178;15.316;2024-01-27T06:20:58;333.27;;;82.43;;
21798;SDS011;24973;47.178;15.316;2024-01-27T06:23:49;339.70;;;84.93;;
21798;SDS011;24973;47.178;15.316;2024-01-27T06:26:37;336.27;;;81.73;;
21798;SDS011;24973;47.178;15.316;2024-01-27T06:29:26;333.00;;;81.40;;
21798;SDS011;24973;47.178;15.316;2024-01-27T06:32:15;437.67;;;167.17;;
21798;SDS011;24973;47.178;15.316;2024-01-27T06:35:04;369.80;;;104.90;;
21798;SDS011;24973;47.178;15.316;2024-01-27T06:37:54;329.63;;;79.10;;
21798;SDS011;24973;47.178;15.316;2024-01-27T06:40:44;341.00;;;88.37;;
21798;SDS011;24973;47.178;15.316;2024-01-27T06:43:33;429.27;;;160.27;;
21798;SDS011;24973;47.178;15.316;2024-01-27T06:46:22;423.83;;;155.97;;
21798;SDS011;24973;47.178;15.316;2024-01-27T06:49:11;382.63;;;117.90;;
21798;SDS011;24973;47.178;15.316;2024-01-27T06:52:00;436.93;;;167.87;;
21798;SDS011;24973;47.178;15.316;2024-01-27T06:54:50;373.13;;;110.73;;
21798;SDS011;24973;47.178;15.316;2024-01-27T06:57:40;437.77;;;166.87;;
21798;SDS011;24973;47.178;15.316;2024-01-27T07:00:29;381.03;;;113.67;;
21798;SDS011;24973;47.178;15.316;2024-01-27T07:03:18;419.70;;;156.23;;
21798;SDS011;24973;47.178;15.316;2024-01-27T07:06:07;418.50;;;154.10;;
21798;SDS011;24973;47.178;15.316;2024-01-27T07:08:57;329.17;;;79.03;;
21798;SDS011;24973;47.178;15.316;2024-01-27T07:11:46;429.57;;;160.37;;
21798;SDS011;24973;47.178;15.316;2024-01-27T07:14:37;421.90;;;163.53;;
21798;SDS011;24973;47.178;15.316;2024-01-27T07:17:26;333.00;;;84.60;;
21798;SDS011;24973;47.178;15.316;2024-01-27T07:20:15;335.17;;;83.63;;
21798;SDS011;24973;47.178;15.316;2024-01-27T07:23:04;337.13;;;85.07;;
21798;SDS011;24973;47.178;15.316;2024-01-27T07:25:53;333.47;;;82.87;;
21798;SDS011;24973;47.178;15.316;2024-01-27T07:28:42;348.43;;;97.80;;
21798;SDS011;24973;47.178;15.316;2024-01-27T07:31:32;344.37;;;92.57;;
21798;SDS011;24973;47.178;15.316;2024-01-27T07:34:21;334.03;;;85.57;;
21798;SDS011;24973;47.178;15.316;2024-01-27T07:37:10;331.80;;;83.60;;
21798;SDS011;24973;47.178;15.316;2024-01-27T07:39:59;338.17;;;91.53;;
21798;SDS011;24973;47.178;15.316;2024-01-27T07:42:48;346.57;;;94.53;;
21798;SDS011;24973;47.178;15.316;2024-01-27T07:45:38;340.60;;;89.73;;
21798;SDS011;24973;47.178;15.316;2024-01-27T07:48:28;336.50;;;90.13;;
21798;SDS011;24973;47.178;15.316;2024-01-27T07:51:17;340.40;;;90.90;;
21798;SDS011;24973;47.178;15.316;2024-01-27T07:54:06;339.27;;;91.27;;
21798;SDS011;24973;47.178;15.316;2024-01-27T07:56:55;337.77;;;89.43;;
21798;SDS011;24973;47.178;15.316;2024-01-27T07:59:43;351.27;;;100.03;;
21798;SDS011;24973;47.178;15.316;2024-01-27T08:02:32;341.57;;;93.50;;
21798;SDS011;24973;47.178;15.316;2024-01-27T08:05:23;345.27;;;96.80;;
21798;SDS011;24973;47.178;15.316;2024-01-27T08:08:12;340.80;;;93.17;;
21798;SDS011;24973;47.178;15.316;2024-01-27T08:11:03;338.63;;;90.20;;
21798;SDS011;24973;47.178;15.316;2024-01-27T08:13:52;349.33;;;98.00;;
21798;SDS011;24973;47.178;15.316;2024-01-27T08:16:41;344.63;;;97.50;;
21798;SDS011;24973;47.178;15.316;2024-01-27T08:19:31;347.10;;;97.33;;
21798;SDS011;24973;47.178;15.316;2024-01-27T08:22:21;334.47;;;89.10;;
21798;SDS011;24973;47.178;15.316;2024-01-27T08:25:10;347.13;;;98.23;;
21798;SDS011;24973;47.178;15.316;2024-01-27T08:27:59;343.33;;;95.13;;
21798;SDS011;24973;47.178;15.316;2024-01-27T08:30:48;352.93;;;102.57;;
21798;SDS011;24973;47.178;15.316;2024-01-27T08:33:37;340.97;;;93.73;;
21798;SDS011;24973;47.178;15.316;2024-01-27T08:36:26;344.93;;;97.93;;
21798;SDS011;24973;47.178;15.316;2024-01-27T08:39:16;336.73;;;90.70;;
21798;SDS011;24973;47.178;15.316;2024-01-27T08:42:05;344.70;;;99.20;;
21798;SDS011;24973;47.178;15.316;2024-01-27T08:44:54;347.00;;;100.17;;
21798;SDS011;24973;47.178;15.316;2024-01-27T08:47:43;349.03;;;102.67;;
21798;SDS011;24973;47.178;15.316;2024-01-27T08:50:32;342.57;;;97.93;;
21798;SDS011;24973;47.178;15.316;2024-01-27T08:53:21;343.30;;;97.93;;
21798;SDS011;24973;47.178;15.316;2024-01-27T08:56:12;343.27;;;100.77;;
21798;SDS011;24973;47.178;15.316;2024-01-27T08:59:01;343.70;;;99.40;;
21798;SDS011;24973;47.178;15.316;2024-01-27T09:01:50;351.50;;;105.07;;
21798;SDS011;24973;47.178;15.316;2024-01-27T09:04:38;352.30;;;101.80;;
21798;SDS011;24973;47.178;15.316;2024-01-27T09:07:28;346.50;;;103.57;;
21798;SDS011;24973;47.178;15.316;2024-01-27T09:10:17;341.37;;;97.37;;
21798;SDS011;24973;47.178;15.316;2024-01-27T09:13:07;346.40;;;113.57;;
21798;SDS011;24973;47.178;15.316;2024-01-27T09:15:56;339.83;;;101.73;;
21798;SDS011;24973;47.178;15.316;2024-01-27T09:18:45;350.00;;;108.07;;
21798;SDS011;24973;47.178;15.316;2024-01-27T09:21:36;341.53;;;101.87;;
21798;SDS011;24973;47.178;15.316;2024-01-27T09:24:25;340.10;;;104.43;;
21798;SDS011;24973;47.178;15.316;2024-01-27T09:27:14;341.70;;;101.07;;
21798;SDS011;24973;47.178;15.316;2024-01-27T09:30:06;348.87;;;101.53;;
21798;SDS011;24973;47.178;15.316;2024-01-27T09:32:56;343.87;;;98.60;;
21798;SDS011;24973;47.178;15.316;2024-01-27T09:35:46;353.43;;;106.17;;
21798;SDS011;24973;47.178;15.316;2024-01-27T09:38:35;347.57;;;100.90;;
21798;SDS011;24973;47.178;15.316;2024-01-27T09:41:24;341.40;;;100.90;;
21798;SDS011;24973;47.178;15.316;2024-01-27T09:44:18;344.33;;;97.90;;
21798;SDS011;24973;47.178;15.316;2024-01-27T09:47:09;350.93;;;103.43;;
21798;SDS011;24973;47.178;15.316;2024-01-27T09:49:59;348.00;;;102.57;;
21798;SDS011;24973;47.178;15.316;2024-01-27T09:52:48;353.53;;;108.03;;
21798;SDS011;24973;47.178;15.316;2024-01-27T09:55:36;343.23;;;99.30;;
21798;SDS011;24973;47.178;15.316;2024-01-27T09:58:25;349.73;;;109.60;;
21798;SDS011;24973;47.178;15.316;2024-01-27T10:01:16;357.00;;;111.80;;
21798;SDS011;24973;47.178;15.316;2024-01-27T10:04:07;351.30;;;107.73;;
21798;SDS011;24973;47.178;15.316;2024-01-27T10:06:57;348.70;;;106.40;;
21798;SDS011;24973;47.178;15.316;2024-01-27T10:09:48;369.37;;;122.97;;
21798;SDS011;24973;47.178;15.316;2024-01-27T10:12:38;354.70;;;111.10;;
21798;SDS011;24973;47.178;15.316;2024-01-27T10:15:29;352.50;;;109.20;;
21798;SDS011;24973;47.178;15.316;2024-01-27T10:18:18;356.60;;;110.73;;
21798;SDS011;24973;47.178;15.316;2024-01-27T10:21:13;354.73;;;115.83;;
21798;SDS011;24973;47.178;15.316;2024-01-27T10:24:05;352.40;;;110.27;;
21798;SDS011;24973;47.178;15.316;2024-01-27T10:26:58;360.43;;;112.40;;
21798;SDS011;24973;47.178;15.316;2024-01-27T10:29:51;363.73;;;120.63;;
21798;SDS011;24973;47.178;15.316;2024-01-27T10:32:41;361.83;;;120.33;;
21798;SDS011;24973;47.178;15.316;2024-01-27T10:35:30;348.87;;;106.97;;
21798;SDS011;24973;47.178;15.316;2024-01-27T10:38:20;352.33;;;115.83;;
21798;SDS011;24973;47.178;15.316;2024-01-27T10:41:09;354.40;;;115.77;;
21798;SDS011;24973;47.178;15.316;2024-01-27T10:43:58;355.47;;;118.87;;
21798;SDS011;24973;47.178;15.316;2024-01-27T10:46:48;362.90;;;116.97;;
21798;SDS011;24973;47.178;15.316;2024-01-27T10:49:38;353.73;;;113.17;;
21798;SDS011;24973;47.178;15.316;2024-01-27T10:52:31;361.20;;;125.77;;
21798;SDS011;24973;47.178;15.316;2024-01-27T10:55:22;361.33;;;127.47;;
21798;SDS011;24973;47.178;15.316;2024-01-27T10:58:14;365.33;;;138.10;;
21798;SDS011;24973;47.178;15.316;2024-01-27T11:01:03;364.47;;;140.13;;
21798;SDS011;24973;47.178;15.316;2024-01-27T11:03:54;374.90;;;154.67;;
21798;SDS011;24973;47.178;15.316;2024-01-27T11:06:44;369.60;;;152.17;;
21798;SDS011;24973;47.178;15.316;2024-01-27T11:09:35;365.37;;;154.33;;
21798;SDS011;24973;47.178;15.316;2024-01-27T11:12:27;375.43;;;172.93;;
21798;SDS011;24973;47.178;15.316;2024-01-27T11:15:16;381.53;;;186.10;;
21798;SDS011;24973;47.178;15.316;2024-01-27T11:18:05;382.20;;;172.97;;
21798;SDS011;24973;47.178;15.316;2024-01-27T11:20:55;380.10;;;170.20;;
21798;SDS011;24973;47.178;15.316;2024-01-27T11:23:47;377.70;;;166.17;;
21798;SDS011;24973;47.178;15.316;2024-01-27T11:26:36;376.40;;;178.00;;
21798;SDS011;24973;47.178;15.316;2024-01-27T11:29:27;376.63;;;180.33;;
21798;SDS011;24973;47.178;15.316;2024-01-27T11:32:16;371.23;;;179.43;;
21798;SDS011;24973;47.178;15.316;2024-01-27T11:35:05;374.50;;;187.13;;
21798;SDS011;24973;47.178;15.316;2024-01-27T11:37:55;383.87;;;210.27;;
21798;SDS011;24973;47.178;15.316;2024-01-27T11:40:44;378.53;;;192.50;;
21798;SDS011;24973;47.178;15.316;2024-01-27T11:43:34;378.17;;;203.70;;
21798;SDS011;24973;47.178;15.316;2024-01-27T11:46:24;372.53;;;181.57;;
21798;SDS011;24973;47.178;15.316;2024-01-27T11:49:14;377.57;;;182.40;;
21798;SDS011;24973;47.178;15.316;2024-01-27T11:52:05;372.53;;;168.40;;
21798;SDS011;24973;47.178;15.316;2024-01-27T11:54:55;384.17;;;172.37;;
21798;SDS011;24973;47.178;15.316;2024-01-27T11:57:44;369.80;;;148.53;;
21798;SDS011;24973;47.178;15.316;2024-01-27T12:00:33;369.63;;;155.43;;
21798;SDS011;24973;47.178;15.316;2024-01-27T12:03:25;366.70;;;150.37;;
21798;SDS011;24973;47.178;15.316;2024-01-27T12:06:14;367.80;;;158.13;;
21798;SDS011;24973;47.178;15.316;2024-01-27T12:09:03;370.97;;;177.67;;
21798;SDS011;24973;47.178;15.316;2024-01-27T12:11:58;375.93;;;185.90;;
21798;SDS011;24973;47.178;15.316;2024-01-27T12:14:47;382.10;;;191.27;;
21798;SDS011;24973;47.178;15.316;2024-01-27T12:17:38;381.43;;;206.53;;
21798;SDS011;24973;47.178;15.316;2024-01-27T12:20:28;372.27;;;188.27;;
21798;SDS011;24973;47.178;15.316;2024-01-27T12:23:17;369.23;;;177.67;;
21798;SDS011;24973;47.178;15.316;2024-01-27T12:26:13;377.93;;;202.90;;
21798;SDS011;24973;47.178;15.316;2024-01-27T12:29:03;376.53;;;204.27;;
21798;SDS011;24973;47.178;15.316;2024-01-27T12:31:52;378.30;;;195.57;;
21798;SDS011;24973;47.178;15.316;2024-01-27T12:34:42;379.83;;;194.60;;
21798;SDS011;24973;47.178;15.316;2024-01-27T12:37:33;373.90;;;194.57;;
21798;SDS011;24973;47.178;15.316;2024-01-27T12:40:23;379.07;;;210.40;;
21798;SDS011;24973;47.178;15.316;2024-01-27T12:43:14;381.27;;;219.83;;
21798;SDS011;24973;47.178;15.316;2024-01-27T12:46:03;378.30;;;218.70;;
21798;SDS011;24973;47.178;15.316;2024-01-27T12:48:52;391.57;;;223.53;;
21798;SDS011;24973;47.178;15.316;2024-01-27T12:51:41;379.97;;;228.87;;
21798;SDS011;24973;47.178;15.316;2024-01-27T12:54:33;375.27;;;228.47;;
21798;SDS011;24973;47.178;15.316;2024-01-27T12:57:22;377.07;;;222.73;;
21798;SDS011;24973;47.178;15.316;2024-01-27T13:00:12;371.77;;;211.50;;
21798;SDS011;24973;47.178;15.316;2024-01-27T13:03:02;372.00;;;217.33;;
21798;SDS011;24973;47.178;15.316;2024-01-27T13:05:53;377.17;;;229.33;;
21798;SDS011;24973;47.178;15.316;2024-01-27T13:08:42;378.80;;;223.93;;
21798;SDS011;24973;47.178;15.316;2024-01-27T13:11:32;373.55;;;225.70;;
21798;SDS011;24973;47.178;15.316;2024-01-27T13:14:21;373.45;;;226.65;;
21798;SDS011;24973;47.178;15.316;2024-01-27T13:17:10;375.60;;;233.00;;
21798;SDS011;24973;47.178;15.316;2024-01-27T13:20:01;374.07;;;216.57;;
21798;SDS011;24973;47.178;15.316;2024-01-27T13:22:51;375.73;;;212.43;;
21798;SDS011;24973;47.178;15.316;2024-01-27T13:25:40;381.03;;;235.97;;
21798;SDS011;24973;47.178;15.316;2024-01-27T13:28:34;381.03;;;243.63;;
21798;SDS011;24973;47.178;15.316;2024-01-27T13:31:22;391.50;;;271.10;;
21798;SDS011;24973;47.178;15.316;2024-01-27T13:34:12;395.37;;;290.63;;
21798;SDS011;24973;47.178;15.316;2024-01-27T13:37:01;389.87;;;281.97;;
21798;SDS011;24973;47.178;15.316;2024-01-27T13:39:50;397.80;;;275.77;;
21798;SDS011;24973;47.178;15.316;2024-01-27T13:42:42;390.73;;;277.50;;
21798;SDS011;24973;47.178;15.316;2024-01-27T13:45:32;390.97;;;296.27;;
21798;SDS011;24973;47.178;15.316;2024-01-27T13:48:22;396.03;;;301.43;;
21798;SDS011;24973;47.178;15.316;2024-01-27T13:51:12;402.30;;;331.10;;
21798;SDS011;24973;47.178;15.316;2024-01-27T13:54:01;403.63;;;333.00;;
21798;SDS011;24973;47.178;15.316;2024-01-27T13:56:51;409.83;;;330.70;;
21798;SDS011;24973;47.178;15.316;2024-01-27T13:59:40;399.37;;;315.70;;
21798;SDS011;24973;47.178;15.316;2024-01-27T14:02:30;404.50;;;328.13;;
21798;SDS011;24973;47.178;15.316;2024-01-27T14:05:20;404.83;;;322.30;;
21798;SDS011;24973;47.178;15.316;2024-01-27T14:08:09;416.33;;;340.50;;
21798;SDS011;24973;47.178;15.316;2024-01-27T14:10:58;404.47;;;336.43;;
21798;SDS011;24973;47.178;15.316;2024-01-27T14:13:48;414.70;;;354.00;;
21798;SDS011;24973;47.178;15.316;2024-01-27T14:16:45;415.73;;;369.33;;
21798;SDS011;24973;47.178;15.316;2024-01-27T14:19:36;425.63;;;379.67;;
21798;SDS011;24973;47.178;15.316;2024-01-27T14:22:26;424.73;;;378.33;;
21798;SDS011;24973;47.178;15.316;2024-01-27T14:25:15;428.10;;;381.40;;
21798;SDS011;24973;47.178;15.316;2024-01-27T14:28:05;409.80;;;362.20;;
21798;SDS011;24973;47.178;15.316;2024-01-27T14:30:57;415.00;;;364.63;;
21798;SDS011;24973;47.178;15.316;2024-01-27T14:33:46;409.43;;;363.80;;
21798;SDS011;24973;47.178;15.316;2024-01-27T14:36:36;390.00;;;313.00;;
21798;SDS011;24973;47.178;15.316;2024-01-27T14:39:27;382.70;;;316.30;;
21798;SDS011;24973;47.178;15.316;2024-01-27T14:42:17;372.27;;;286.27;;
21798;SDS011;24973;47.178;15.316;2024-01-27T14:45:07;385.70;;;303.37;;
21798;SDS011;24973;47.178;15.316;2024-01-27T14:47:57;393.73;;;344.50;;
21798;SDS011;24973;47.178;15.316;2024-01-27T14:50:47;395.10;;;341.47;;
21798;SDS011;24973;47.178;15.316;2024-01-27T14:53:41;390.27;;;335.93;;
21798;SDS011;24973;47.178;15.316;2024-01-27T14:56:30;419.97;;;373.83;;
21798;SDS011;24973;47.178;15.316;2024-01-27T14:59:19;410.23;;;364.80;;
21798;SDS011;24973;47.178;15.316;2024-01-27T15:02:08;401.07;;;344.97;;
21798;SDS011;24973;47.178;15.316;2024-01-27T15:04:57;408.17;;;331.90;;
21798;SDS011;24973;47.178;15.316;2024-01-27T15:07:46;405.23;;;331.27;;
21798;SDS011;24973;47.178;15.316;2024-01-27T15:10:37;398.47;;;320.40;;
21798;SDS011;24973;47.178;15.316;2024-01-27T15:13:26;393.90;;;290.67;;
21798;SDS011;24973;47.178;15.316;2024-01-27T15:16:16;395.97;;;266.67;;
21798;SDS011;24973;47.178;15.316;2024-01-27T15:19:05;386.60;;;228.20;;
21798;SDS011;24973;47.178;15.316;2024-01-27T15:21:54;389.77;;;205.73;;
21798;SDS011;24973;47.178;15.316;2024-01-27T15:24:44;375.17;;;167.53;;
21798;SDS011;24973;47.178;15.316;2024-01-27T15:27:34;373.30;;;158.57;;
21798;SDS011;24973;47.178;15.316;2024-01-27T15:30:23;369.20;;;142.57;;
21798;SDS011;24973;47.178;15.316;2024-01-27T15:33:12;365.17;;;133.73;;
21798;SDS011;24973;47.178;15.316;2024-01-27T15:36:02;369.47;;;128.60;;
21798;SDS011;24973;47.178;15.316;2024-01-27T15:38:51;377.63;;;129.50;;
21798;SDS011;24973;47.178;15.316;2024-01-27T15:41:40;364.40;;;119.57;;
21798;SDS011;24973;47.178;15.316;2024-01-27T15:44:31;359.43;;;112.80;;
21798;SDS011;24973;47.178;15.316;2024-01-27T15:47:20;355.67;;;108.67;;
21798;SDS011;24973;47.178;15.316;2024-01-27T15:50:09;351.33;;;106.63;;
21798;SDS011;24973;47.178;15.316;2024-01-27T15:53:00;353.47;;;107.13;;
21798;SDS011;24973;47.178;15.316;2024-01-27T15:55:50;359.03;;;106.17;;
21798;SDS011;24973;47.178;15.316;2024-01-27T15:58:39;356.43;;;106.80;;